sensor_id;sensor_type;location;lat;lon;timestamp;P1;durP1;ratioP1;P2;durP2;ratioP2
47575;SDS011;33304;52.456;13.328;2023-06-22T00:01:17;6.60;;;6.10;;
47575;SDS011;33304;52.456;13.328;2023-06-22T00:03:45;12.47;;;11.63;;
47575;SDS011;33304;52.456;13.328;2023-06-22T00:06:12;7.00;;;6.60;;
47575;SDS011;33304;52.456;13.328;2023-06-22T00:08:39;10.40;;;9.80;;
47575;SDS011;33304;52.456;13.328;2023-06-22T00:11:06;16.57;;;15.73;;
47575;SDS011;33304;52.456;13.328;2023-06-22T00:13:35;9.30;;;8.77;;
47575;SDS011;33304;52.456;13.328;2023-06-22T00:16:02;8.73;;;8.23;;
47575;SDS011;33304;52.456;13.328;2023-06-22T00:18:29;7.27;;;6.77;;
47575;SDS011;33304;52.456;13.328;2023-06-22T00:20:57;7.93;;;7.47;;
47575;SDS011;33304;52.456;13.328;2023-06-22T00:23:25;13.77;;;13.10;;
47575;SDS011;33304;52.456;13.328;2023-06-22T00:25:53;7.93;;;7.37;;
47575;SDS011;33304;52.456;13.328;2023-06-22T00:28:20;12.00;;;11.17;;
47575;SDS011;33304;52.456;13.328;2023-06-22T00:30:49;7.63;;;7.20;;
47575;SDS011;33304;52.456;13.328;2023-06-22T00:33:17;7.87;;;7.47;;
47575;SDS011;33304;52.456;13.328;2023-06-22T00:35:44;7.33;;;6.93;;
47575;SDS011;33304;52.456;13.328;2023-06-22T00:38:12;7.07;;;6.57;;
47575;SDS011;33304;52.456;13.328;2023-06-22T00:40:41;6.57;;;6.17;;
47575;SDS011;33304;52.456;13.328;2023-06-22T00:43:08;9.60;;;9.13;;
47575;SDS011;33304;52.456;13.328;2023-06-22T00:45:35;7.83;;;7.33;;
47575;SDS011;33304;52.456;13.328;2023-06-22T00:48:04;10.17;;;9.67;;
47575;SDS011;33304;52.456;13.328;2023-06-22T00:50:32;9.87;;;9.30;;
47575;SDS011;33304;52.456;13.328;2023-06-22T00:53:00;10.13;;;9.60;;
47575;SDS011;33304;52.456;13.328;2023-06-22T00:55:33;11.33;;;10.77;;
47575;SDS011;33304;52.456;13.328;2023-06-22T00:58:04;6.53;;;6.13;;
47575;SDS011;33304;52.456;13.328;2023-06-22T01:00:36;6.00;;;5.60;;
47575;SDS011;33304;52.456;13.328;2023-06-22T01:03:04;14.00;;;13.33;;
47575;SDS011;33304;52.456;13.328;2023-06-22T01:05:34;6.60;;;6.20;;
47575;SDS011;33304;52.456;13.328;2023-06-22T01:08:04;10.47;;;9.90;;
47575;SDS011;33304;52.456;13.328;2023-06-22T01:10:40;19.90;;;19.00;;
47575;SDS011;33304;52.456;13.328;2023-06-22T01:13:22;8.60;;;8.17;;
47575;SDS011;33304;52.456;13.328;2023-06-22T01:15:57;14.77;;;14.03;;
47575;SDS011;33304;52.456;13.328;2023-06-22T01:18:30;34.83;;;33.27;;
47575;SDS011;33304;52.456;13.328;2023-06-22T01:21:01;22.80;;;21.60;;
47575;SDS011;33304;52.456;13.328;2023-06-22T01:23:37;15.10;;;14.40;;
47575;SDS011;33304;52.456;13.328;2023-06-22T01:26:13;23.87;;;22.57;;
47575;SDS011;33304;52.456;13.328;2023-06-22T01:28:48;25.07;;;23.83;;
47575;SDS011;33304;52.456;13.328;2023-06-22T01:31:17;37.63;;;35.90;;
47575;SDS011;33304;52.456;13.328;2023-06-22T01:33:47;8.37;;;7.87;;
47575;SDS011;33304;52.456;13.328;2023-06-22T01:36:17;33.53;;;31.93;;
47575;SDS011;33304;52.456;13.328;2023-06-22T01:38:45;44.67;;;42.80;;
47575;SDS011;33304;52.456;13.328;2023-06-22T01:41:14;37.03;;;35.33;;
47575;SDS011;33304;52.456;13.328;2023-06-22T01:43:43;28.43;;;27.00;;
47575;SDS011;33304;52.456;13.328;2023-06-22T01:46:12;11.60;;;10.97;;
47575;SDS011;33304;52.456;13.328;2023-06-22T01:48:40;35.47;;;33.87;;
47575;SDS011;33304;52.456;13.328;2023-06-22T01:51:08;44.47;;;42.50;;
47575;SDS011;33304;52.456;13.328;2023-06-22T01:53:35;69.87;;;66.83;;
47575;SDS011;33304;52.456;13.328;2023-06-22T01:56:02;55.50;;;53.10;;
47575;SDS011;33304;52.456;13.328;2023-06-22T01:58:30;39.33;;;37.57;;
47575;SDS011;33304;52.456;13.328;2023-06-22T02:01:00;51.23;;;49.03;;
47575;SDS011;33304;52.456;13.328;2023-06-22T02:03:38;21.57;;;20.27;;
47575;SDS011;33304;52.456;13.328;2023-06-22T02:06:13;46.40;;;44.27;;
47575;SDS011;33304;52.456;13.328;2023-06-22T02:08:47;43.47;;;41.50;;
47575;SDS011;33304;52.456;13.328;2023-06-22T02:11:16;40.17;;;38.33;;
47575;SDS011;33304;52.456;13.328;2023-06-22T02:13:46;38.67;;;36.83;;
47575;SDS011;33304;52.456;13.328;2023-06-22T02:16:14;63.63;;;60.83;;
47575;SDS011;33304;52.456;13.328;2023-06-22T02:18:47;17.57;;;16.67;;
47575;SDS011;33304;52.456;13.328;2023-06-22T02:21:16;35.27;;;33.67;;
47575;SDS011;33304;52.456;13.328;2023-06-22T02:23:43;28.87;;;27.43;;
47575;SDS011;33304;52.456;13.328;2023-06-22T02:26:10;48.27;;;46.20;;
47575;SDS011;33304;52.456;13.328;2023-06-22T02:28:38;23.27;;;22.13;;
47575;SDS011;33304;52.456;13.328;2023-06-22T02:31:05;26.27;;;24.73;;
47575;SDS011;33304;52.456;13.328;2023-06-22T02:33:32;44.67;;;42.73;;
47575;SDS011;33304;52.456;13.328;2023-06-22T02:36:01;43.80;;;41.80;;
47575;SDS011;33304;52.456;13.328;2023-06-22T02:38:30;40.53;;;38.67;;
47575;SDS011;33304;52.456;13.328;2023-06-22T02:40:59;46.23;;;44.10;;
47575;SDS011;33304;52.456;13.328;2023-06-22T02:43:26;35.30;;;33.60;;
47575;SDS011;33304;52.456;13.328;2023-06-22T02:45:54;46.77;;;44.27;;
47575;SDS011;33304;52.456;13.328;2023-06-22T02:48:22;38.40;;;36.57;;
47575;SDS011;33304;52.456;13.328;2023-06-22T02:50:49;50.20;;;48.03;;
47575;SDS011;33304;52.456;13.328;2023-06-22T02:53:18;35.90;;;34.17;;
47575;SDS011;33304;52.456;13.328;2023-06-22T02:55:46;44.63;;;42.63;;
47575;SDS011;33304;52.456;13.328;2023-06-22T02:58:13;41.83;;;39.93;;
47575;SDS011;33304;52.456;13.328;2023-06-22T03:00:41;53.10;;;50.83;;
47575;SDS011;33304;52.456;13.328;2023-06-22T03:03:08;50.33;;;48.13;;
47575;SDS011;33304;52.456;13.328;2023-06-22T03:05:35;18.60;;;17.63;;
47575;SDS011;33304;52.456;13.328;2023-06-22T03:08:03;50.93;;;48.70;;
47575;SDS011;33304;52.456;13.328;2023-06-22T03:10:34;68.47;;;65.60;;
47575;SDS011;33304;52.456;13.328;2023-06-22T03:13:01;45.67;;;43.63;;
47575;SDS011;33304;52.456;13.328;2023-06-22T03:15:30;72.33;;;69.33;;
47575;SDS011;33304;52.456;13.328;2023-06-22T03:17:57;41.20;;;39.30;;
47575;SDS011;33304;52.456;13.328;2023-06-22T03:20:24;40.07;;;38.13;;
47575;SDS011;33304;52.456;13.328;2023-06-22T03:22:52;57.43;;;54.97;;
47575;SDS011;33304;52.456;13.328;2023-06-22T03:25:19;65.67;;;62.87;;
47575;SDS011;33304;52.456;13.328;2023-06-22T03:27:50;69.47;;;66.50;;
47575;SDS011;33304;52.456;13.328;2023-06-22T03:30:17;65.30;;;62.47;;
47575;SDS011;33304;52.456;13.328;2023-06-22T03:32:45;64.53;;;61.83;;
47575;SDS011;33304;52.456;13.328;2023-06-22T03:35:13;79.47;;;76.20;;
47575;SDS011;33304;52.456;13.328;2023-06-22T03:37:40;62.57;;;59.87;;
47575;SDS011;33304;52.456;13.328;2023-06-22T03:40:07;53.00;;;50.70;;
47575;SDS011;33304;52.456;13.328;2023-06-22T03:42:35;45.93;;;43.73;;
47575;SDS011;33304;52.456;13.328;2023-06-22T03:45:04;79.77;;;76.40;;
47575;SDS011;33304;52.456;13.328;2023-06-22T03:47:32;49.97;;;47.67;;
47575;SDS011;33304;52.456;13.328;2023-06-22T03:50:00;44.00;;;42.00;;
47575;SDS011;33304;52.456;13.328;2023-06-22T03:52:29;53.27;;;51.00;;
47575;SDS011;33304;52.456;13.328;2023-06-22T03:54:56;35.33;;;33.77;;
47575;SDS011;33304;52.456;13.328;2023-06-22T03:57:23;18.27;;;16.93;;
47575;SDS011;33304;52.456;13.328;2023-06-22T03:59:50;18.43;;;17.50;;
47575;SDS011;33304;52.456;13.328;2023-06-22T04:02:19;13.87;;;13.20;;
47575;SDS011;33304;52.456;13.328;2023-06-22T04:04:46;26.30;;;25.13;;
47575;SDS011;33304;52.456;13.328;2023-06-22T04:07:13;14.20;;;13.40;;
47575;SDS011;33304;52.456;13.328;2023-06-22T04:09:40;9.10;;;8.60;;
47575;SDS011;33304;52.456;13.328;2023-06-22T04:12:07;7.87;;;7.33;;
47575;SDS011;33304;52.456;13.328;2023-06-22T04:14:34;6.70;;;6.20;;
47575;SDS011;33304;52.456;13.328;2023-06-22T04:17:02;7.83;;;5.70;;
47575;SDS011;33304;52.456;13.328;2023-06-22T04:19:30;6.13;;;5.73;;
47575;SDS011;33304;52.456;13.328;2023-06-22T04:21:58;6.20;;;5.70;;
47575;SDS011;33304;52.456;13.328;2023-06-22T04:24:25;6.00;;;5.67;;
47575;SDS011;33304;52.456;13.328;2023-06-22T04:26:52;5.93;;;5.53;;
47575;SDS011;33304;52.456;13.328;2023-06-22T04:29:20;5.53;;;5.13;;
47575;SDS011;33304;52.456;13.328;2023-06-22T04:31:55;5.07;;;4.67;;
47575;SDS011;33304;52.456;13.328;2023-06-22T04:34:24;4.93;;;4.63;;
47575;SDS011;33304;52.456;13.328;2023-06-22T04:36:54;4.87;;;4.47;;
47575;SDS011;33304;52.456;13.328;2023-06-22T04:39:21;5.43;;;4.97;;
47575;SDS011;33304;52.456;13.328;2023-06-22T04:41:49;5.00;;;4.60;;
47575;SDS011;33304;52.456;13.328;2023-06-22T04:44:17;4.83;;;4.53;;
47575;SDS011;33304;52.456;13.328;2023-06-22T04:46:49;5.47;;;4.97;;
47575;SDS011;33304;52.456;13.328;2023-06-22T04:49:19;4.80;;;4.50;;
47575;SDS011;33304;52.456;13.328;2023-06-22T04:51:47;5.50;;;5.00;;
47575;SDS011;33304;52.456;13.328;2023-06-22T04:54:18;5.63;;;4.70;;
47575;SDS011;33304;52.456;13.328;2023-06-22T04:56:45;5.33;;;4.93;;
47575;SDS011;33304;52.456;13.328;2023-06-22T04:59:14;5.50;;;5.10;;
47575;SDS011;33304;52.456;13.328;2023-06-22T05:01:44;4.70;;;4.20;;
47575;SDS011;33304;52.456;13.328;2023-06-22T05:04:11;3.87;;;3.57;;
47575;SDS011;33304;52.456;13.328;2023-06-22T05:06:38;9.23;;;4.17;;
47575;SDS011;33304;52.456;13.328;2023-06-22T05:09:05;4.17;;;3.97;;
47575;SDS011;33304;52.456;13.328;2023-06-22T05:11:33;4.53;;;4.13;;
47575;SDS011;33304;52.456;13.328;2023-06-22T05:14:01;5.70;;;4.10;;
47575;SDS011;33304;52.456;13.328;2023-06-22T05:16:28;4.10;;;3.80;;
47575;SDS011;33304;52.456;13.328;2023-06-22T05:18:55;4.00;;;3.70;;
47575;SDS011;33304;52.456;13.328;2023-06-22T05:21:23;4.00;;;3.60;;
47575;SDS011;33304;52.456;13.328;2023-06-22T05:23:52;4.30;;;3.73;;
47575;SDS011;33304;52.456;13.328;2023-06-22T05:26:20;3.77;;;3.47;;
47575;SDS011;33304;52.456;13.328;2023-06-22T05:28:49;3.70;;;3.37;;
47575;SDS011;33304;52.456;13.328;2023-06-22T05:31:16;3.40;;;3.20;;
47575;SDS011;33304;52.456;13.328;2023-06-22T05:33:45;3.63;;;3.43;;
47575;SDS011;33304;52.456;13.328;2023-06-22T05:36:13;3.87;;;3.57;;
47575;SDS011;33304;52.456;13.328;2023-06-22T05:38:41;3.90;;;3.60;;
47575;SDS011;33304;52.456;13.328;2023-06-22T05:41:08;3.70;;;3.33;;
47575;SDS011;33304;52.456;13.328;2023-06-22T05:43:35;3.47;;;3.27;;
47575;SDS011;33304;52.456;13.328;2023-06-22T05:46:03;4.23;;;3.83;;
47575;SDS011;33304;52.456;13.328;2023-06-22T05:48:31;3.60;;;3.40;;
47575;SDS011;33304;52.456;13.328;2023-06-22T05:50:58;3.83;;;3.53;;
47575;SDS011;33304;52.456;13.328;2023-06-22T05:53:25;3.43;;;3.23;;
47575;SDS011;33304;52.456;13.328;2023-06-22T05:55:52;3.43;;;3.23;;
47575;SDS011;33304;52.456;13.328;2023-06-22T05:58:20;3.33;;;3.13;;
47575;SDS011;33304;52.456;13.328;2023-06-22T06:00:47;3.40;;;3.07;;
47575;SDS011;33304;52.456;13.328;2023-06-22T06:03:15;3.07;;;2.87;;
47575;SDS011;33304;52.456;13.328;2023-06-22T06:05:43;3.50;;;3.23;;
47575;SDS011;33304;52.456;13.328;2023-06-22T06:08:11;3.30;;;3.00;;
47575;SDS011;33304;52.456;13.328;2023-06-22T06:10:38;3.33;;;3.07;;
47575;SDS011;33304;52.456;13.328;2023-06-22T06:13:05;3.57;;;3.27;;
47575;SDS011;33304;52.456;13.328;2023-06-22T06:15:33;3.13;;;2.93;;
47575;SDS011;33304;52.456;13.328;2023-06-22T06:18:01;3.77;;;3.47;;
47575;SDS011;33304;52.456;13.328;2023-06-22T06:20:31;3.30;;;3.10;;
47575;SDS011;33304;52.456;13.328;2023-06-22T06:22:59;3.53;;;3.03;;
47575;SDS011;33304;52.456;13.328;2023-06-22T06:25:26;3.60;;;3.33;;
47575;SDS011;33304;52.456;13.328;2023-06-22T06:27:53;3.27;;;3.07;;
47575;SDS011;33304;52.456;13.328;2023-06-22T06:30:20;4.73;;;2.77;;
47575;SDS011;33304;52.456;13.328;2023-06-22T06:32:49;3.00;;;2.70;;
47575;SDS011;33304;52.456;13.328;2023-06-22T06:35:16;3.10;;;2.90;;
47575;SDS011;33304;52.456;13.328;2023-06-22T06:37:46;2.53;;;2.33;;
47575;SDS011;33304;52.456;13.328;2023-06-22T06:40:14;2.40;;;2.20;;
47575;SDS011;33304;52.456;13.328;2023-06-22T06:42:43;4.27;;;2.23;;
47575;SDS011;33304;52.456;13.328;2023-06-22T06:45:11;2.27;;;2.17;;
47575;SDS011;33304;52.456;13.328;2023-06-22T06:47:38;2.73;;;2.53;;
47575;SDS011;33304;52.456;13.328;2023-06-22T06:50:06;2.90;;;2.03;;
47575;SDS011;33304;52.456;13.328;2023-06-22T06:52:34;2.27;;;2.13;;
47575;SDS011;33304;52.456;13.328;2023-06-22T06:55:03;2.00;;;1.80;;
47575;SDS011;33304;52.456;13.328;2023-06-22T06:57:33;2.40;;;2.30;;
47575;SDS011;33304;52.456;13.328;2023-06-22T07:00:02;2.37;;;1.90;;
47575;SDS011;33304;52.456;13.328;2023-06-22T07:02:37;2.05;;;1.85;;
47575;SDS011;33304;52.456;13.328;2023-06-22T07:05:05;2.10;;;1.90;;
47575;SDS011;33304;52.456;13.328;2023-06-22T07:07:33;2.40;;;1.70;;
47575;SDS011;33304;52.456;13.328;2023-06-22T07:10:01;2.47;;;1.80;;
47575;SDS011;33304;52.456;13.328;2023-06-22T07:12:29;2.03;;;1.93;;
47575;SDS011;33304;52.456;13.328;2023-06-22T07:15:00;2.20;;;2.10;;
47575;SDS011;33304;52.456;13.328;2023-06-22T07:17:29;2.70;;;2.27;;
47575;SDS011;33304;52.456;13.328;2023-06-22T07:19:56;1.87;;;1.77;;
47575;SDS011;33304;52.456;13.328;2023-06-22T07:22:23;2.20;;;2.10;;
47575;SDS011;33304;52.456;13.328;2023-06-22T07:24:50;2.53;;;2.30;;
47575;SDS011;33304;52.456;13.328;2023-06-22T07:27:18;3.55;;;2.50;;
47575;SDS011;33304;52.456;13.328;2023-06-22T07:29:46;2.50;;;1.88;;
47575;SDS011;33304;52.456;13.328;2023-06-22T07:32:13;2.00;;;1.90;;
47575;SDS011;33304;52.456;13.328;2023-06-22T07:34:40;2.05;;;1.83;;
47575;SDS011;33304;52.456;13.328;2023-06-22T07:37:08;2.33;;;2.00;;
47575;SDS011;33304;52.456;13.328;2023-06-22T07:39:35;1.90;;;1.80;;
47575;SDS011;33304;52.456;13.328;2023-06-22T07:42:03;3.70;;;2.03;;
47575;SDS011;33304;52.456;13.328;2023-06-22T07:44:32;3.05;;;1.90;;
47575;SDS011;33304;52.456;13.328;2023-06-22T07:46:59;2.03;;;1.92;;
47575;SDS011;33304;52.456;13.328;2023-06-22T07:49:27;2.20;;;1.80;;
47575;SDS011;33304;52.456;13.328;2023-06-22T07:51:54;2.38;;;2.10;;
47575;SDS011;33304;52.456;13.328;2023-06-22T07:54:21;2.10;;;2.00;;
47575;SDS011;33304;52.456;13.328;2023-06-22T07:56:48;1.90;;;1.77;;
47575;SDS011;33304;52.456;13.328;2023-06-22T07:59:16;2.08;;;1.90;;
47575;SDS011;33304;52.456;13.328;2023-06-22T08:01:44;2.75;;;2.00;;
47575;SDS011;33304;52.456;13.328;2023-06-22T08:04:11;1.80;;;1.70;;
47575;SDS011;33304;52.456;13.328;2023-06-22T08:06:38;2.00;;;1.90;;
47575;SDS011;33304;52.456;13.328;2023-06-22T08:09:05;2.00;;;1.90;;
47575;SDS011;33304;52.456;13.328;2023-06-22T08:11:32;2.28;;;2.17;;
47575;SDS011;33304;52.456;13.328;2023-06-22T08:13:59;2.28;;;2.15;;
47575;SDS011;33304;52.456;13.328;2023-06-22T08:16:26;2.20;;;2.10;;
47575;SDS011;33304;52.456;13.328;2023-06-22T08:18:55;2.42;;;2.22;;
47575;SDS011;33304;52.456;13.328;2023-06-22T08:21:22;2.05;;;1.85;;
47575;SDS011;33304;52.456;13.328;2023-06-22T08:23:49;2.00;;;1.90;;
47575;SDS011;33304;52.456;13.328;2023-06-22T08:26:17;2.13;;;1.90;;
47575;SDS011;33304;52.456;13.328;2023-06-22T08:28:44;2.50;;;1.92;;
47575;SDS011;33304;52.456;13.328;2023-06-22T08:31:11;2.33;;;2.20;;
47575;SDS011;33304;52.456;13.328;2023-06-22T08:33:39;2.30;;;2.20;;
47575;SDS011;33304;52.456;13.328;2023-06-22T08:36:10;2.10;;;2.00;;
47575;SDS011;33304;52.456;13.328;2023-06-22T08:38:38;2.10;;;1.90;;
47575;SDS011;33304;52.456;13.328;2023-06-22T08:41:05;2.03;;;1.92;;
47575;SDS011;33304;52.456;13.328;2023-06-22T08:43:33;1.90;;;1.80;;
47575;SDS011;33304;52.456;13.328;2023-06-22T08:46:00;2.10;;;2.00;;
47575;SDS011;33304;52.456;13.328;2023-06-22T08:48:28;1.80;;;1.70;;
47575;SDS011;33304;52.456;13.328;2023-06-22T08:50:56;2.85;;;1.90;;
47575;SDS011;33304;52.456;13.328;2023-06-22T08:53:24;2.00;;;1.90;;
47575;SDS011;33304;52.456;13.328;2023-06-22T08:55:51;2.42;;;1.92;;
47575;SDS011;33304;52.456;13.328;2023-06-22T08:58:18;2.13;;;2.03;;
47575;SDS011;33304;52.456;13.328;2023-06-22T09:00:46;2.20;;;2.10;;
47575;SDS011;33304;52.456;13.328;2023-06-22T09:03:14;1.88;;;1.77;;
47575;SDS011;33304;52.456;13.328;2023-06-22T09:05:41;4.20;;;1.85;;
47575;SDS011;33304;52.456;13.328;2023-06-22T09:08:08;2.20;;;2.10;;
47575;SDS011;33304;52.456;13.328;2023-06-22T09:10:36;1.98;;;1.88;;
47575;SDS011;33304;52.456;13.328;2023-06-22T09:13:03;2.55;;;2.28;;
47575;SDS011;33304;52.456;13.328;2023-06-22T09:15:31;3.25;;;2.28;;
47575;SDS011;33304;52.456;13.328;2023-06-22T09:17:58;2.38;;;2.28;;
47575;SDS011;33304;52.456;13.328;2023-06-22T09:20:25;1.98;;;1.88;;
47575;SDS011;33304;52.456;13.328;2023-06-22T09:22:52;2.10;;;2.00;;
47575;SDS011;33304;52.456;13.328;2023-06-22T09:25:19;2.80;;;2.60;;
47575;SDS011;33304;52.456;13.328;2023-06-22T09:27:48;2.50;;;2.40;;
47575;SDS011;33304;52.456;13.328;2023-06-22T09:30:15;3.17;;;2.97;;
47575;SDS011;33304;52.456;13.328;2023-06-22T09:32:42;3.13;;;2.92;;
47575;SDS011;33304;52.456;13.328;2023-06-22T09:35:09;3.55;;;2.97;;
47575;SDS011;33304;52.456;13.328;2023-06-22T09:37:38;3.08;;;2.88;;
47575;SDS011;33304;52.456;13.328;2023-06-22T09:40:07;3.22;;;3.13;;
47575;SDS011;33304;52.456;13.328;2023-06-22T09:42:36;3.78;;;3.58;;
47575;SDS011;33304;52.456;13.328;2023-06-22T09:45:05;4.25;;;4.05;;
47575;SDS011;33304;52.456;13.328;2023-06-22T09:47:33;3.67;;;3.47;;
47575;SDS011;33304;52.456;13.328;2023-06-22T09:50:00;4.50;;;4.10;;
47575;SDS011;33304;52.456;13.328;2023-06-22T09:52:27;3.38;;;3.17;;
47575;SDS011;33304;52.456;13.328;2023-06-22T09:54:54;3.03;;;2.83;;
47575;SDS011;33304;52.456;13.328;2023-06-22T09:57:22;3.92;;;3.72;;
47575;SDS011;33304;52.456;13.328;2023-06-22T09:59:49;3.58;;;3.45;;
47575;SDS011;33304;52.456;13.328;2023-06-22T10:02:17;3.53;;;3.33;;
47575;SDS011;33304;52.456;13.328;2023-06-22T10:04:44;3.72;;;3.53;;
47575;SDS011;33304;52.456;13.328;2023-06-22T10:07:11;2.65;;;2.45;;
47575;SDS011;33304;52.456;13.328;2023-06-22T10:09:38;2.80;;;2.65;;
47575;SDS011;33304;52.456;13.328;2023-06-22T10:12:06;3.33;;;3.13;;
47575;SDS011;33304;52.456;13.328;2023-06-22T10:14:33;4.15;;;3.95;;
47575;SDS011;33304;52.456;13.328;2023-06-22T10:17:01;4.70;;;4.40;;
47575;SDS011;33304;52.456;13.328;2023-06-22T10:19:30;4.07;;;3.88;;
47575;SDS011;33304;52.456;13.328;2023-06-22T10:21:57;4.97;;;4.78;;
47575;SDS011;33304;52.456;13.328;2023-06-22T10:24:25;4.55;;;4.35;;
47575;SDS011;33304;52.456;13.328;2023-06-22T10:26:52;4.50;;;4.30;;
47575;SDS011;33304;52.456;13.328;2023-06-22T10:29:19;6.10;;;5.80;;
47575;SDS011;33304;52.456;13.328;2023-06-22T10:31:46;4.80;;;4.60;;
47575;SDS011;33304;52.456;13.328;2023-06-22T10:34:14;4.95;;;4.50;;
47575;SDS011;33304;52.456;13.328;2023-06-22T10:36:42;4.07;;;3.88;;
47575;SDS011;33304;52.456;13.328;2023-06-22T10:39:11;4.82;;;4.63;;
47575;SDS011;33304;52.456;13.328;2023-06-22T10:41:38;3.28;;;3.08;;
47575;SDS011;33304;52.456;13.328;2023-06-22T10:44:05;4.22;;;3.95;;
47575;SDS011;33304;52.456;13.328;2023-06-22T10:46:33;4.80;;;4.53;;
47575;SDS011;33304;52.456;13.328;2023-06-22T10:49:00;5.20;;;4.90;;
47575;SDS011;33304;52.456;13.328;2023-06-22T10:51:27;6.07;;;5.78;;
47575;SDS011;33304;52.456;13.328;2023-06-22T10:53:55;5.40;;;5.10;;
47575;SDS011;33304;52.456;13.328;2023-06-22T10:56:23;5.50;;;5.18;;
47575;SDS011;33304;52.456;13.328;2023-06-22T10:58:50;6.63;;;6.32;;
47575;SDS011;33304;52.456;13.328;2023-06-22T11:01:17;6.65;;;6.22;;
47575;SDS011;33304;52.456;13.328;2023-06-22T11:03:44;5.07;;;4.88;;
47575;SDS011;33304;52.456;13.328;2023-06-22T11:06:11;6.00;;;5.70;;
47575;SDS011;33304;52.456;13.328;2023-06-22T11:08:40;5.53;;;5.22;;
47575;SDS011;33304;52.456;13.328;2023-06-22T11:11:11;6.00;;;5.60;;
47575;SDS011;33304;52.456;13.328;2023-06-22T11:13:38;4.70;;;4.50;;
47575;SDS011;33304;52.456;13.328;2023-06-22T11:16:05;5.40;;;5.18;;
47575;SDS011;33304;52.456;13.328;2023-06-22T11:18:32;4.75;;;4.55;;
47575;SDS011;33304;52.456;13.328;2023-06-22T11:20:59;5.07;;;4.88;;
47575;SDS011;33304;52.456;13.328;2023-06-22T11:23:26;6.00;;;5.60;;
47575;SDS011;33304;52.456;13.328;2023-06-22T11:25:54;6.93;;;6.63;;
47575;SDS011;33304;52.456;13.328;2023-06-22T11:28:22;5.38;;;5.13;;
47575;SDS011;33304;52.456;13.328;2023-06-22T11:30:49;6.00;;;5.70;;
47575;SDS011;33304;52.456;13.328;2023-06-22T11:33:16;5.88;;;5.68;;
47575;SDS011;33304;52.456;13.328;2023-06-22T11:35:44;4.90;;;4.70;;
47575;SDS011;33304;52.456;13.328;2023-06-22T11:38:11;6.43;;;6.13;;
47575;SDS011;33304;52.456;13.328;2023-06-22T11:40:38;7.60;;;7.05;;
47575;SDS011;33304;52.456;13.328;2023-06-22T11:43:05;6.63;;;6.22;;
47575;SDS011;33304;52.456;13.328;2023-06-22T11:45:33;8.15;;;7.60;;
47575;SDS011;33304;52.456;13.328;2023-06-22T11:48:00;7.35;;;7.03;;
47575;SDS011;33304;52.456;13.328;2023-06-22T11:50:27;7.93;;;7.63;;
47575;SDS011;33304;52.456;13.328;2023-06-22T11:52:55;9.35;;;8.95;;
47575;SDS011;33304;52.456;13.328;2023-06-22T11:55:22;9.98;;;9.48;;
47575;SDS011;33304;52.456;13.328;2023-06-22T11:57:53;11.45;;;10.95;;
47575;SDS011;33304;52.456;13.328;2023-06-22T12:00:22;13.18;;;12.57;;
47575;SDS011;33304;52.456;13.328;2023-06-22T12:02:51;12.20;;;11.70;;
47575;SDS011;33304;52.456;13.328;2023-06-22T12:05:18;13.13;;;12.52;;
47575;SDS011;33304;52.456;13.328;2023-06-22T12:07:47;13.65;;;13.05;;
47575;SDS011;33304;52.456;13.328;2023-06-22T12:10:14;14.65;;;14.05;;
47575;SDS011;33304;52.456;13.328;2023-06-22T12:12:41;12.85;;;12.15;;
47575;SDS011;33304;52.456;13.328;2023-06-22T12:15:09;13.55;;;12.95;;
47575;SDS011;33304;52.456;13.328;2023-06-22T12:17:36;13.63;;;12.93;;
47575;SDS011;33304;52.456;13.328;2023-06-22T12:20:05;11.00;;;10.50;;
47575;SDS011;33304;52.456;13.328;2023-06-22T12:22:34;8.90;;;8.50;;
47575;SDS011;33304;52.456;13.328;2023-06-22T12:25:03;9.77;;;9.38;;
47575;SDS011;33304;52.456;13.328;2023-06-22T12:27:30;9.77;;;9.38;;
47575;SDS011;33304;52.456;13.328;2023-06-22T12:29:58;9.00;;;8.60;;
47575;SDS011;33304;52.456;13.328;2023-06-22T12:32:25;6.15;;;5.85;;
47575;SDS011;33304;52.456;13.328;2023-06-22T12:34:52;7.30;;;6.90;;
47575;SDS011;33304;52.456;13.328;2023-06-22T12:37:20;6.95;;;6.55;;
47575;SDS011;33304;52.456;13.328;2023-06-22T12:39:48;6.03;;;5.75;;
47575;SDS011;33304;52.456;13.328;2023-06-22T12:42:15;6.13;;;5.82;;
47575;SDS011;33304;52.456;13.328;2023-06-22T12:44:42;6.25;;;5.82;;
47575;SDS011;33304;52.456;13.328;2023-06-22T12:47:10;5.57;;;5.28;;
47575;SDS011;33304;52.456;13.328;2023-06-22T12:49:37;7.00;;;6.70;;
47575;SDS011;33304;52.456;13.328;2023-06-22T12:52:08;6.85;;;6.45;;
47575;SDS011;33304;52.456;13.328;2023-06-22T12:54:37;6.63;;;6.32;;
47575;SDS011;33304;52.456;13.328;2023-06-22T12:57:05;6.97;;;6.68;;
47575;SDS011;33304;52.456;13.328;2023-06-22T12:59:32;6.45;;;6.15;;
47575;SDS011;33304;52.456;13.328;2023-06-22T13:01:59;6.68;;;6.28;;
47575;SDS011;33304;52.456;13.328;2023-06-22T13:04:26;6.28;;;5.97;;
47575;SDS011;33304;52.456;13.328;2023-06-22T13:06:54;4.82;;;4.63;;
47575;SDS011;33304;52.456;13.328;2023-06-22T13:09:21;12.05;;;11.55;;
47575;SDS011;33304;52.456;13.328;2023-06-22T13:11:49;11.38;;;10.88;;
47575;SDS011;33304;52.456;13.328;2023-06-22T13:14:17;13.15;;;12.55;;
47575;SDS011;33304;52.456;13.328;2023-06-22T13:16:44;18.70;;;17.90;;
47575;SDS011;33304;52.456;13.328;2023-06-22T13:19:11;11.15;;;10.75;;
47575;SDS011;33304;52.456;13.328;2023-06-22T13:21:39;8.70;;;8.30;;
47575;SDS011;33304;52.456;13.328;2023-06-22T13:24:06;7.38;;;7.03;;
47575;SDS011;33304;52.456;13.328;2023-06-22T13:26:33;9.73;;;9.32;;
47575;SDS011;33304;52.456;13.328;2023-06-22T13:29:02;9.23;;;8.73;;
47575;SDS011;33304;52.456;13.328;2023-06-22T13:31:29;9.45;;;9.05;;
47575;SDS011;33304;52.456;13.328;2023-06-22T13:33:56;9.45;;;9.05;;
47575;SDS011;33304;52.456;13.328;2023-06-22T13:36:23;9.23;;;8.82;;
47575;SDS011;33304;52.456;13.328;2023-06-22T13:38:50;9.77;;;9.35;;
47575;SDS011;33304;52.456;13.328;2023-06-22T13:41:17;12.88;;;12.35;;
47575;SDS011;33304;52.456;13.328;2023-06-22T13:43:44;15.73;;;15.07;;
47575;SDS011;33304;52.456;13.328;2023-06-22T13:46:13;14.35;;;13.75;;
47575;SDS011;33304;52.456;13.328;2023-06-22T13:48:40;14.95;;;14.15;;
47575;SDS011;33304;52.456;13.328;2023-06-22T13:51:07;5.60;;;5.40;;
47575;SDS011;33304;52.456;13.328;2023-06-22T13:53:34;4.35;;;4.15;;
47575;SDS011;33304;52.456;13.328;2023-06-22T13:56:01;5.28;;;5.07;;
47575;SDS011;33304;52.456;13.328;2023-06-22T13:58:28;5.20;;;5.00;;
47575;SDS011;33304;52.456;13.328;2023-06-22T14:00:55;6.07;;;5.78;;
47575;SDS011;33304;52.456;13.328;2023-06-22T14:03:24;6.03;;;5.72;;
47575;SDS011;33304;52.456;13.328;2023-06-22T14:05:51;5.97;;;5.78;;
47575;SDS011;33304;52.456;13.328;2023-06-22T14:08:21;5.88;;;5.57;;
47575;SDS011;33304;52.456;13.328;2023-06-22T14:10:50;6.28;;;5.97;;
47575;SDS011;33304;52.456;13.328;2023-06-22T14:13:19;6.85;;;6.55;;
47575;SDS011;33304;52.456;13.328;2023-06-22T14:15:46;5.25;;;5.00;;
47575;SDS011;33304;52.456;13.328;2023-06-22T14:18:14;6.45;;;6.10;;
47575;SDS011;33304;52.456;13.328;2023-06-22T14:20:43;5.25;;;5.05;;
47575;SDS011;33304;52.456;13.328;2023-06-22T14:23:10;6.15;;;5.85;;
47575;SDS011;33304;52.456;13.328;2023-06-22T14:25:37;6.53;;;6.22;;
47575;SDS011;33304;52.456;13.328;2023-06-22T14:28:05;6.38;;;6.07;;
47575;SDS011;33304;52.456;13.328;2023-06-22T14:30:32;6.72;;;6.32;;
47575;SDS011;33304;52.456;13.328;2023-06-22T14:32:59;6.53;;;6.20;;